sensor_id;sensor_type;location;lat;lon;timestamp;temperature;humidity
3478;DHT22;37937;61.490;23.506;2023-04-25T00:01:15;4.50;99.90
3478;DHT22;37937;61.490;23.506;2023-04-25T00:03:40;4.50;99.90
3478;DHT22;37937;61.490;23.506;2023-04-25T00:06:06;4.50;99.90
3478;DHT22;37937;61.490;23.506;2023-04-25T00:08:32;4.50;99.90
3478;DHT22;37937;61.490;23.506;2023-04-25T00:10:58;4.50;99.90
3478;DHT22;37937;61.490;23.506;2023-04-25T00:13:23;4.50;99.90
3478;DHT22;37937;61.490;23.506;2023-04-25T00:15:51;4.50;99.90
3478;DHT22;37937;61.490;23.506;2023-04-25T00:18:16;4.50;99.90
3478;DHT22;37937;61.490;23.506;2023-04-25T00:20:43;4.60;99.90
3478;DHT22;37937;61.490;23.506;2023-04-25T00:23:15;4.50;99.90
3478;DHT22;37937;61.490;23.506;2023-04-25T00:25:46;4.50;99.90
3478;DHT22;37937;61.490;23.506;2023-04-25T00:28:12;4.50;99.90
3478;DHT22;37937;61.490;23.506;2023-04-25T00:30:38;4.40;99.90
3478;DHT22;37937;61.490;23.506;2023-04-25T00:33:03;4.40;99.90
3478;DHT22;37937;61.490;23.506;2023-04-25T00:35:29;4.50;99.90
3478;DHT22;37937;61.490;23.506;2023-04-25T00:37:55;4.50;99.90
3478;DHT22;37937;61.490;23.506;2023-04-25T00:40:20;4.50;99.90
3478;DHT22;37937;61.490;23.506;2023-04-25T00:42:46;4.50;99.90
3478;DHT22;37937;61.490;23.506;2023-04-25T00:45:12;4.50;99.90
3478;DHT22;37937;61.490;23.506;2023-04-25T00:47:39;4.50;99.90
3478;DHT22;37937;61.490;23.506;2023-04-25T00:50:05;4.60;99.90
3478;DHT22;37937;61.490;23.506;2023-04-25T00:52:31;4.60;99.90
3478;DHT22;37937;61.490;23.506;2023-04-25T00:54:57;4.60;99.90
3478;DHT22;37937;61.490;23.506;2023-04-25T00:57:23;4.60;99.90
3478;DHT22;37937;61.490;23.506;2023-04-25T00:59:48;4.60;99.90
3478;DHT22;37937;61.490;23.506;2023-04-25T01:02:16;4.60;99.90
3478;DHT22;37937;61.490;23.506;2023-04-25T01:04:42;4.70;99.90
3478;DHT22;37937;61.490;23.506;2023-04-25T01:07:07;4.70;99.90
3478;DHT22;37937;61.490;23.506;2023-04-25T01:09:33;4.70;99.90
3478;DHT22;37937;61.490;23.506;2023-04-25T01:11:59;4.70;99.90
3478;DHT22;37937;61.490;23.506;2023-04-25T01:14:26;4.70;99.90
3478;DHT22;37937;61.490;23.506;2023-04-25T01:16:51;4.70;99.90
3478;DHT22;37937;61.490;23.506;2023-04-25T01:19:18;4.70;99.90
3478;DHT22;37937;61.490;23.506;2023-04-25T01:21:44;4.80;99.90
3478;DHT22;37937;61.490;23.506;2023-04-25T01:24:10;4.80;99.90
3478;DHT22;37937;61.490;23.506;2023-04-25T01:26:36;4.70;99.90
3478;DHT22;37937;61.490;23.506;2023-04-25T01:29:03;4.70;99.90
3478;DHT22;37937;61.490;23.506;2023-04-25T01:31:29;4.70;99.90
3478;DHT22;37937;61.490;23.506;2023-04-25T01:33:55;4.80;99.90
3478;DHT22;37937;61.490;23.506;2023-04-25T01:36:21;4.80;99.90
3478;DHT22;37937;61.490;23.506;2023-04-25T01:38:47;4.80;99.90
3478;DHT22;37937;61.490;23.506;2023-04-25T01:41:13;4.70;99.90
3478;DHT22;37937;61.490;23.506;2023-04-25T01:43:39;4.80;99.90
3478;DHT22;37937;61.490;23.506;2023-04-25T01:46:04;4.80;99.90
3478;DHT22;37937;61.490;23.506;2023-04-25T01:48:30;4.80;99.90
3478;DHT22;37937;61.490;23.506;2023-04-25T01:50:56;4.80;99.90
3478;DHT22;37937;61.490;23.506;2023-04-25T01:53:21;4.80;99.90
3478;DHT22;37937;61.490;23.506;2023-04-25T01:55:47;4.80;99.90
3478;DHT22;37937;61.490;23.506;2023-04-25T01:58:13;4.80;99.90
3478;DHT22;37937;61.490;23.506;2023-04-25T02:00:39;4.70;99.90
3478;DHT22;37937;61.490;23.506;2023-04-25T02:03:06;4.70;99.90
3478;DHT22;37937;61.490;23.506;2023-04-25T02:05:35;4.70;99.90
3478;DHT22;37937;61.490;23.506;2023-04-25T02:08:02;4.70;99.90
3478;DHT22;37937;61.490;23.506;2023-04-25T02:10:27;4.60;99.90
3478;DHT22;37937;61.490;23.506;2023-04-25T02:12:53;4.60;99.90
3478;DHT22;37937;61.490;23.506;2023-04-25T02:15:19;4.60;99.90
3478;DHT22;37937;61.490;23.506;2023-04-25T02:17:44;4.70;99.90
3478;DHT22;37937;61.490;23.506;2023-04-25T02:20:10;4.60;99.90
3478;DHT22;37937;61.490;23.506;2023-04-25T02:22:36;4.70;99.90
3478;DHT22;37937;61.490;23.506;2023-04-25T02:25:02;4.70;99.90
3478;DHT22;37937;61.490;23.506;2023-04-25T02:27:30;4.70;99.90
3478;DHT22;37937;61.490;23.506;2023-04-25T02:29:56;4.60;99.90
3478;DHT22;37937;61.490;23.506;2023-04-25T02:32:21;4.60;99.90
3478;DHT22;37937;61.490;23.506;2023-04-25T02:34:47;4.60;99.90
3478;DHT22;37937;61.490;23.506;2023-04-25T02:37:13;4.50;99.90
3478;DHT22;37937;61.490;23.506;2023-04-25T02:39:39;4.60;99.90
3478;DHT22;37937;61.490;23.506;2023-04-25T02:42:04;4.50;99.90
3478;DHT22;37937;61.490;23.506;2023-04-25T02:44:30;4.60;99.90
3478;DHT22;37937;61.490;23.506;2023-04-25T02:46:55;4.60;99.90
3478;DHT22;37937;61.490;23.506;2023-04-25T02:49:21;4.60;99.90
3478;DHT22;37937;61.490;23.506;2023-04-25T02:51:47;4.60;99.90
3478;DHT22;37937;61.490;23.506;2023-04-25T02:54:12;4.60;99.90
3478;DHT22;37937;61.490;23.506;2023-04-25T02:56:38;4.60;99.90
3478;DHT22;37937;61.490;23.506;2023-04-25T02:59:03;4.50;99.90
3478;DHT22;37937;61.490;23.506;2023-04-25T03:01:29;4.50;99.90
3478;DHT22;37937;61.490;23.506;2023-04-25T03:03:55;4.60;99.90
3478;DHT22;37937;61.490;23.506;2023-04-25T03:06:20;4.60;99.90
3478;DHT22;37937;61.490;23.506;2023-04-25T03:08:46;4.70;99.90
3478;DHT22;37937;61.490;23.506;2023-04-25T03:11:11;4.70;99.90
3478;DHT22;37937;61.490;23.506;2023-04-25T03:13:37;4.60;99.90
3478;DHT22;37937;61.490;23.506;2023-04-25T03:16:03;4.60;99.90
3478;DHT22;37937;61.490;23.506;2023-04-25T03:18:28;4.70;99.90
3478;DHT22;37937;61.490;23.506;2023-04-25T03:20:54;4.70;99.90
3478;DHT22;37937;61.490;23.506;2023-04-25T03:23:19;4.70;99.90
3478;DHT22;37937;61.490;23.506;2023-04-25T03:25:45;4.60;99.90
3478;DHT22;37937;61.490;23.506;2023-04-25T03:28:11;4.70;99.90
3478;DHT22;37937;61.490;23.506;2023-04-25T03:30:36;4.80;99.90
3478;DHT22;37937;61.490;23.506;2023-04-25T03:33:02;4.70;99.90
3478;DHT22;37937;61.490;23.506;2023-04-25T03:35:27;4.70;99.90
3478;DHT22;37937;61.490;23.506;2023-04-25T03:37:53;4.70;99.90
3478;DHT22;37937;61.490;23.506;2023-04-25T03:40:19;4.70;99.90
3478;DHT22;37937;61.490;23.506;2023-04-25T03:42:44;4.60;99.90
3478;DHT22;37937;61.490;23.506;2023-04-25T03:45:10;4.60;99.90
3478;DHT22;37937;61.490;23.506;2023-04-25T03:47:36;4.70;99.90
3478;DHT22;37937;61.490;23.506;2023-04-25T03:50:02;4.70;99.90
3478;DHT22;37937;61.490;23.506;2023-04-25T03:52:28;4.70;99.90
3478;DHT22;37937;61.490;23.506;2023-04-25T03:54:53;4.60;99.90
3478;DHT22;37937;61.490;23.506;2023-04-25T03:57:19;4.70;99.90
3478;DHT22;37937;61.490;23.506;2023-04-25T03:59:45;4.60;99.90
3478;DHT22;37937;61.490;23.506;2023-04-25T04:02:10;4.60;99.90
3478;DHT22;37937;61.490;23.506;2023-04-25T04:04:36;4.60;99.90
3478;DHT22;37937;61.490;23.506;2023-04-25T04:07:02;4.60;99.90
3478;DHT22;37937;61.490;23.506;2023-04-25T04:09:28;4.70;99.90
3478;DHT22;37937;61.490;23.506;2023-04-25T04:11:53;4.70;99.90
3478;DHT22;37937;61.490;23.506;2023-04-25T04:14:19;4.70;99.90
3478;DHT22;37937;61.490;23.506;2023-04-25T04:16:44;4.70;99.90
3478;DHT22;37937;61.490;23.506;2023-04-25T04:19:10;4.70;99.90
3478;DHT22;37937;61.490;23.506;2023-04-25T04:21:36;4.70;99.90
3478;DHT22;37937;61.490;23.506;2023-04-25T04:24:01;4.60;99.90
3478;DHT22;37937;61.490;23.506;2023-04-25T04:26:27;4.70;99.90
3478;DHT22;37937;61.490;23.506;2023-04-25T04:28:53;4.80;99.90
3478;DHT22;37937;61.490;23.506;2023-04-25T04:31:22;4.80;99.90
3478;DHT22;37937;61.490;23.506;2023-04-25T04:33:49;4.80;99.90
3478;DHT22;37937;61.490;23.506;2023-04-25T04:36:14;4.80;99.90
3478;DHT22;37937;61.490;23.506;2023-04-25T04:38:41;4.80;99.90
3478;DHT22;37937;61.490;23.506;2023-04-25T04:41:07;4.80;99.90
3478;DHT22;37937;61.490;23.506;2023-04-25T04:43:33;4.90;99.90
3478;DHT22;37937;61.490;23.506;2023-04-25T04:46:02;4.90;99.90
3478;DHT22;37937;61.490;23.506;2023-04-25T04:48:29;4.90;99.90
3478;DHT22;37937;61.490;23.506;2023-04-25T04:50:58;4.90;99.90
3478;DHT22;37937;61.490;23.506;2023-04-25T04:53:23;4.80;99.90
3478;DHT22;37937;61.490;23.506;2023-04-25T04:55:49;4.80;99.90
3478;DHT22;37937;61.490;23.506;2023-04-25T04:58:15;4.80;99.90
3478;DHT22;37937;61.490;23.506;2023-04-25T05:00:40;4.80;99.90
3478;DHT22;37937;61.490;23.506;2023-04-25T05:03:06;4.80;99.90
3478;DHT22;37937;61.490;23.506;2023-04-25T05:05:31;4.80;99.90
3478;DHT22;37937;61.490;23.506;2023-04-25T05:07:57;4.80;99.90
3478;DHT22;37937;61.490;23.506;2023-04-25T05:10:23;4.90;99.90
3478;DHT22;37937;61.490;23.506;2023-04-25T05:12:48;4.90;99.90
3478;DHT22;37937;61.490;23.506;2023-04-25T05:15:14;5.00;99.90
3478;DHT22;37937;61.490;23.506;2023-04-25T05:17:39;4.90;99.90
3478;DHT22;37937;61.490;23.506;2023-04-25T05:20:06;5.00;99.90
3478;DHT22;37937;61.490;23.506;2023-04-25T05:22:32;5.00;99.90
3478;DHT22;37937;61.490;23.506;2023-04-25T05:24:57;5.00;99.90
3478;DHT22;37937;61.490;23.506;2023-04-25T05:27:23;5.00;99.90
3478;DHT22;37937;61.490;23.506;2023-04-25T05:29:49;5.00;99.90
3478;DHT22;37937;61.490;23.506;2023-04-25T05:32:14;5.10;99.90
3478;DHT22;37937;61.490;23.506;2023-04-25T05:34:40;5.00;99.90
3478;DHT22;37937;61.490;23.506;2023-04-25T05:37:07;5.10;99.90
3478;DHT22;37937;61.490;23.506;2023-04-25T05:39:32;5.20;99.90
3478;DHT22;37937;61.490;23.506;2023-04-25T05:41:58;5.30;99.90
3478;DHT22;37937;61.490;23.506;2023-04-25T05:44:23;5.20;99.90
3478;DHT22;37937;61.490;23.506;2023-04-25T05:46:49;5.20;99.90
3478;DHT22;37937;61.490;23.506;2023-04-25T05:49:15;5.20;99.90
3478;DHT22;37937;61.490;23.506;2023-04-25T05:51:40;5.20;99.90
3478;DHT22;37937;61.490;23.506;2023-04-25T05:54:06;5.30;99.90
3478;DHT22;37937;61.490;23.506;2023-04-25T05:56:31;5.20;99.90
3478;DHT22;37937;61.490;23.506;2023-04-25T05:58:57;5.30;99.90
3478;DHT22;37937;61.490;23.506;2023-04-25T06:01:23;5.40;99.90
3478;DHT22;37937;61.490;23.506;2023-04-25T06:03:48;5.50;99.90
3478;DHT22;37937;61.490;23.506;2023-04-25T06:06:14;5.50;99.90
3478;DHT22;37937;61.490;23.506;2023-04-25T06:08:40;5.50;99.90
3478;DHT22;37937;61.490;23.506;2023-04-25T06:11:06;5.60;99.90
3478;DHT22;37937;61.490;23.506;2023-04-25T06:13:31;5.60;99.90
3478;DHT22;37937;61.490;23.506;2023-04-25T06:15:57;5.50;99.90
3478;DHT22;37937;61.490;23.506;2023-04-25T06:18:22;5.50;99.90
3478;DHT22;37937;61.490;23.506;2023-04-25T06:20:48;5.50;99.90
3478;DHT22;37937;61.490;23.506;2023-04-25T06:23:13;5.60;99.90
3478;DHT22;37937;61.490;23.506;2023-04-25T06:25:39;5.60;99.90
3478;DHT22;37937;61.490;23.506;2023-04-25T06:28:05;5.70;99.90
3478;DHT22;37937;61.490;23.506;2023-04-25T06:30:30;5.70;99.90
3478;DHT22;37937;61.490;23.506;2023-04-25T06:32:56;5.70;99.90
3478;DHT22;37937;61.490;23.506;2023-04-25T06:35:21;5.70;99.90
3478;DHT22;37937;61.490;23.506;2023-04-25T06:37:47;5.70;99.90
3478;DHT22;37937;61.490;23.506;2023-04-25T06:40:13;5.60;99.90
3478;DHT22;37937;61.490;23.506;2023-04-25T06:42:38;5.70;99.90
3478;DHT22;37937;61.490;23.506;2023-04-25T06:45:04;5.60;99.90
3478;DHT22;37937;61.490;23.506;2023-04-25T06:47:30;5.60;99.90
3478;DHT22;37937;61.490;23.506;2023-04-25T06:49:56;5.60;99.90
3478;DHT22;37937;61.490;23.506;2023-04-25T06:52:21;5.70;99.90
3478;DHT22;37937;61.490;23.506;2023-04-25T06:54:47;5.70;99.90
3478;DHT22;37937;61.490;23.506;2023-04-25T06:57:12;5.70;99.90
3478;DHT22;37937;61.490;23.506;2023-04-25T06:59:38;5.70;99.90
3478;DHT22;37937;61.490;23.506;2023-04-25T07:02:04;5.70;99.90
3478;DHT22;37937;61.490;23.506;2023-04-25T07:04:29;5.70;99.90
3478;DHT22;37937;61.490;23.506;2023-04-25T07:06:56;5.80;99.90
3478;DHT22;37937;61.490;23.506;2023-04-25T07:09:21;5.70;99.90
3478;DHT22;37937;61.490;23.506;2023-04-25T07:11:47;5.80;99.90
3478;DHT22;37937;61.490;23.506;2023-04-25T07:14:13;5.90;99.90
3478;DHT22;37937;61.490;23.506;2023-04-25T07:16:38;5.90;99.90
3478;DHT22;37937;61.490;23.506;2023-04-25T07:19:04;5.90;99.90
3478;DHT22;37937;61.490;23.506;2023-04-25T07:21:29;6.00;99.90
3478;DHT22;37937;61.490;23.506;2023-04-25T07:23:57;6.00;99.90
3478;DHT22;37937;61.490;23.506;2023-04-25T07:26:22;6.10;99.90
3478;DHT22;37937;61.490;23.506;2023-04-25T07:28:48;6.10;99.90
3478;DHT22;37937;61.490;23.506;2023-04-25T07:31:16;6.10;99.90
3478;DHT22;37937;61.490;23.506;2023-04-25T07:33:46;6.10;99.90
3478;DHT22;37937;61.490;23.506;2023-04-25T07:36:11;6.30;99.90
3478;DHT22;37937;61.490;23.506;2023-04-25T07:38:38;6.30;99.90
3478;DHT22;37937;61.490;23.506;2023-04-25T07:41:04;6.30;99.90
3478;DHT22;37937;61.490;23.506;2023-04-25T07:43:29;6.40;99.90
3478;DHT22;37937;61.490;23.506;2023-04-25T07:45:55;6.50;99.90
3478;DHT22;37937;61.490;23.506;2023-04-25T07:48:21;6.60;99.90
3478;DHT22;37937;61.490;23.506;2023-04-25T07:50:47;6.80;99.90
3478;DHT22;37937;61.490;23.506;2023-04-25T07:53:12;6.80;99.90
3478;DHT22;37937;61.490;23.506;2023-04-25T07:55:38;6.90;99.90
3478;DHT22;37937;61.490;23.506;2023-04-25T07:58:05;7.00;99.90
3478;DHT22;37937;61.490;23.506;2023-04-25T08:00:31;6.90;99.90
3478;DHT22;37937;61.490;23.506;2023-04-25T08:02:56;6.90;99.90
3478;DHT22;37937;61.490;23.506;2023-04-25T08:05:22;7.00;99.90
3478;DHT22;37937;61.490;23.506;2023-04-25T08:07:48;7.00;99.90
3478;DHT22;37937;61.490;23.506;2023-04-25T08:10:13;7.00;99.90
3478;DHT22;37937;61.490;23.506;2023-04-25T08:12:39;7.00;99.90
3478;DHT22;37937;61.490;23.506;2023-04-25T08:15:05;7.10;99.90
3478;DHT22;37937;61.490;23.506;2023-04-25T08:17:30;7.00;99.90
3478;DHT22;37937;61.490;23.506;2023-04-25T08:19:56;7.00;99.90
3478;DHT22;37937;61.490;23.506;2023-04-25T08:22:22;6.90;99.90
3478;DHT22;37937;61.490;23.506;2023-04-25T08:24:47;6.90;99.90
3478;DHT22;37937;61.490;23.506;2023-04-25T08:27:13;6.70;99.90
3478;DHT22;37937;61.490;23.506;2023-04-25T08:29:39;6.70;99.90
3478;DHT22;37937;61.490;23.506;2023-04-25T08:32:04;6.80;99.90
3478;DHT22;37937;61.490;23.506;2023-04-25T08:34:30;6.80;99.90
3478;DHT22;37937;61.490;23.506;2023-04-25T08:36:55;6.70;99.90
3478;DHT22;37937;61.490;23.506;2023-04-25T08:39:21;6.70;99.90
3478;DHT22;37937;61.490;23.506;2023-04-25T08:41:47;6.70;99.90
3478;DHT22;37937;61.490;23.506;2023-04-25T08:44:12;6.80;99.90
3478;DHT22;37937;61.490;23.506;2023-04-25T08:46:38;7.00;99.90
3478;DHT22;37937;61.490;23.506;2023-04-25T08:49:07;6.90;99.90
3478;DHT22;37937;61.490;23.506;2023-04-25T08:51:34;7.00;99.90
3478;DHT22;37937;61.490;23.506;2023-04-25T08:54:10;7.10;99.90
3478;DHT22;37937;61.490;23.506;2023-04-25T08:56:40;7.20;99.90
3478;DHT22;37937;61.490;23.506;2023-04-25T08:59:06;7.20;99.90
3478;DHT22;37937;61.490;23.506;2023-04-25T09:01:36;7.20;99.90
3478;DHT22;37937;61.490;23.506;2023-04-25T09:04:01;7.30;99.90
3478;DHT22;37937;61.490;23.506;2023-04-25T09:06:30;7.50;99.90
3478;DHT22;37937;61.490;23.506;2023-04-25T09:09:03;7.70;99.90
3478;DHT22;37937;61.490;23.506;2023-04-25T09:11:30;7.60;99.90
3478;DHT22;37937;61.490;23.506;2023-04-25T09:14:18;7.60;99.90
3478;DHT22;37937;61.490;23.506;2023-04-25T09:19:23;7.70;99.90
3478;DHT22;37937;61.490;23.506;2023-04-25T09:21:50;7.70;99.90
3478;DHT22;37937;61.490;23.506;2023-04-25T09:24:16;7.70;99.90
3478;DHT22;37937;61.490;23.506;2023-04-25T09:26:41;7.70;99.90
3478;DHT22;37937;61.490;23.506;2023-04-25T09:29:09;7.80;99.90
3478;DHT22;37937;61.490;23.506;2023-04-25T09:31:34;7.80;99.90
3478;DHT22;37937;61.490;23.506;2023-04-25T09:34:00;7.90;99.90
3478;DHT22;37937;61.490;23.506;2023-04-25T09:36:27;7.90;99.90
3478;DHT22;37937;61.490;23.506;2023-04-25T09:38:52;8.10;99.90
3478;DHT22;37937;61.490;23.506;2023-04-25T09:41:22;8.30;99.90
3478;DHT22;37937;61.490;23.506;2023-04-25T09:43:48;8.50;99.90
3478;DHT22;37937;61.490;23.506;2023-04-25T09:46:14;8.70;99.90
3478;DHT22;37937;61.490;23.506;2023-04-25T09:48:40;8.80;99.90
3478;DHT22;37937;61.490;23.506;2023-04-25T09:51:13;8.90;99.90
3478;DHT22;37937;61.490;23.506;2023-04-25T09:53:39;8.80;99.90
3478;DHT22;37937;61.490;23.506;2023-04-25T09:56:06;8.90;99.90
3478;DHT22;37937;61.490;23.506;2023-04-25T09:58:33;9.00;99.90
3478;DHT22;37937;61.490;23.506;2023-04-25T10:01:00;9.10;99.90
3478;DHT22;37937;61.490;23.506;2023-04-25T10:03:26;9.20;99.90
3478;DHT22;37937;61.490;23.506;2023-04-25T10:05:53;9.30;99.90
3478;DHT22;37937;61.490;23.506;2023-04-25T10:08:20;9.50;99.90
3478;DHT22;37937;61.490;23.506;2023-04-25T10:10:46;9.80;99.90
3478;DHT22;37937;61.490;23.506;2023-04-25T10:13:12;9.70;99.90
3478;DHT22;37937;61.490;23.506;2023-04-25T10:15:40;9.80;99.90
3478;DHT22;37937;61.490;23.506;2023-04-25T10:18:06;9.80;99.90
3478;DHT22;37937;61.490;23.506;2023-04-25T10:20:32;9.80;99.90
3478;DHT22;37937;61.490;23.506;2023-04-25T10:22:59;10.20;99.90
3478;DHT22;37937;61.490;23.506;2023-04-25T10:25:29;10.20;99.90
3478;DHT22;37937;61.490;23.506;2023-04-25T10:27:54;10.50;99.90
3478;DHT22;37937;61.490;23.506;2023-04-25T10:30:20;10.30;99.90
3478;DHT22;37937;61.490;23.506;2023-04-25T10:32:46;10.30;99.90
3478;DHT22;37937;61.490;23.506;2023-04-25T10:35:16;10.40;99.90
3478;DHT22;37937;61.490;23.506;2023-04-25T10:37:58;10.40;99.90
3478;DHT22;37937;61.490;23.506;2023-04-25T10:40:23;10.40;99.90
3478;DHT22;37937;61.490;23.506;2023-04-25T10:42:51;10.30;99.90
3478;DHT22;37937;61.490;23.506;2023-04-25T10:45:17;10.80;99.90
3478;DHT22;37937;61.490;23.506;2023-04-25T10:47:43;10.80;99.90
3478;DHT22;37937;61.490;23.506;2023-04-25T10:50:10;10.90;99.90
3478;DHT22;37937;61.490;23.506;2023-04-25T10:52:36;11.10;99.90
3478;DHT22;37937;61.490;23.506;2023-04-25T10:55:06;11.30;99.90
3478;DHT22;37937;61.490;23.506;2023-04-25T10:57:32;11.50;99.90
3478;DHT22;37937;61.490;23.506;2023-04-25T11:00:13;12.00;99.90
3478;DHT22;37937;61.490;23.506;2023-04-25T11:02:41;12.20;99.90
3478;DHT22;37937;61.490;23.506;2023-04-25T11:05:06;12.30;99.90
3478;DHT22;37937;61.490;23.506;2023-04-25T11:10:02;12.80;99.90
3478;DHT22;37937;61.490;23.506;2023-04-25T11:12:30;13.20;99.90
3478;DHT22;37937;61.490;23.506;2023-04-25T11:14:59;13.80;99.90
3478;DHT22;37937;61.490;23.506;2023-04-25T11:17:26;14.10;99.90
3478;DHT22;37937;61.490;23.506;2023-04-25T11:19:51;14.10;99.90
3478;DHT22;37937;61.490;23.506;2023-04-25T11:22:17;14.00;99.90
3478;DHT22;37937;61.490;23.506;2023-04-25T11:24:43;13.80;99.90
3478;DHT22;37937;61.490;23.506;2023-04-25T11:27:08;13.70;99.90
3478;DHT22;37937;61.490;23.506;2023-04-25T11:29:34;14.00;99.90
3478;DHT22;37937;61.490;23.506;2023-04-25T11:32:00;14.10;99.90
3478;DHT22;37937;61.490;23.506;2023-04-25T11:34:27;14.30;99.90
3478;DHT22;37937;61.490;23.506;2023-04-25T11:36:52;14.10;99.90
3478;DHT22;37937;61.490;23.506;2023-04-25T11:39:18;14.20;99.90
3478;DHT22;37937;61.490;23.506;2023-04-25T11:41:44;14.50;99.90
3478;DHT22;37937;61.490;23.506;2023-04-25T11:44:10;14.40;99.90
3478;DHT22;37937;61.490;23.506;2023-04-25T11:46:35;14.40;99.90
3478;DHT22;37937;61.490;23.506;2023-04-25T11:49:01;14.40;99.90
3478;DHT22;37937;61.490;23.506;2023-04-25T11:51:27;14.70;99.90
3478;DHT22;37937;61.490;23.506;2023-04-25T11:53:52;14.60;99.90
3478;DHT22;37937;61.490;23.506;2023-04-25T11:56:18;14.70;99.90
3478;DHT22;37937;61.490;23.506;2023-04-25T11:59:17;14.80;99.90
3478;DHT22;37937;61.490;23.506;2023-04-25T12:01:36;15.00;99.90
3478;DHT22;37937;61.490;23.506;2023-04-25T12:04:12;15.00;99.90
3478;DHT22;37937;61.490;23.506;2023-04-25T12:06:39;15.10;99.90
3478;DHT22;37937;61.490;23.506;2023-04-25T12:09:07;15.30;99.90
3478;DHT22;37937;61.490;23.506;2023-04-25T12:11:33;15.50;99.90
3478;DHT22;37937;61.490;23.506;2023-04-25T12:14:05;15.60;99.90
3478;DHT22;37937;61.490;23.506;2023-04-25T12:16:41;15.70;99.90
3478;DHT22;37937;61.490;23.506;2023-04-25T12:19:07;15.80;99.90
3478;DHT22;37937;61.490;23.506;2023-04-25T12:21:33;16.00;99.90
3478;DHT22;37937;61.490;23.506;2023-04-25T12:27:04;16.00;99.90
3478;DHT22;37937;61.490;23.506;2023-04-25T12:29:31;15.90;99.90
3478;DHT22;37937;61.490;23.506;2023-04-25T12:31:57;16.00;99.90
3478;DHT22;37937;61.490;23.506;2023-04-25T12:34:23;16.20;99.90
3478;DHT22;37937;61.490;23.506;2023-04-25T12:36:49;16.60;99.90
3478;DHT22;37937;61.490;23.506;2023-04-25T12:39:18;16.60;99.90
3478;DHT22;37937;61.490;23.506;2023-04-25T12:41:45;16.70;99.90
3478;DHT22;37937;61.490;23.506;2023-04-25T12:44:11;16.80;99.90
3478;DHT22;37937;61.490;23.506;2023-04-25T12:46:37;16.80;99.90
3478;DHT22;37937;61.490;23.506;2023-04-25T12:49:03;17.00;99.90
3478;DHT22;37937;61.490;23.506;2023-04-25T12:51:29;16.80;99.90
3478;DHT22;37937;61.490;23.506;2023-04-25T12:53:55;16.80;99.90
3478;DHT22;37937;61.490;23.506;2023-04-25T12:56:20;16.70;99.90
3478;DHT22;37937;61.490;23.506;2023-04-25T12:58:46;16.60;99.90
3478;DHT22;37937;61.490;23.506;2023-04-25T13:01:13;16.40;99.90
3478;DHT22;37937;61.490;23.506;2023-04-25T13:03:39;16.30;99.90
3478;DHT22;37937;61.490;23.506;2023-04-25T13:06:06;16.40;99.90
3478;DHT22;37937;61.490;23.506;2023-04-25T13:08:31;16.40;99.90
3478;DHT22;37937;61.490;23.506;2023-04-25T13:10:57;16.50;99.90
3478;DHT22;37937;61.490;23.506;2023-04-25T13:13:22;16.60;99.90
3478;DHT22;37937;61.490;23.506;2023-04-25T13:15:48;16.60;99.90
3478;DHT22;37937;61.490;23.506;2023-04-25T13:18:14;16.60;99.90
3478;DHT22;37937;61.490;23.506;2023-04-25T13:20:40;16.70;99.90
3478;DHT22;37937;61.490;23.506;2023-04-25T13:23:05;16.90;99.90
3478;DHT22;37937;61.490;23.506;2023-04-25T13:25:31;17.00;99.90
3478;DHT22;37937;61.490;23.506;2023-04-25T13:27:56;17.10;99.90
3478;DHT22;37937;61.490;23.506;2023-04-25T13:30:22;17.10;99.90
3478;DHT22;37937;61.490;23.506;2023-04-25T13:32:48;17.10;99.90
3478;DHT22;37937;61.490;23.506;2023-04-25T13:35:13;17.20;99.90
3478;DHT22;37937;61.490;23.506;2023-04-25T13:37:39;17.20;99.90
3478;DHT22;37937;61.490;23.506;2023-04-25T13:40:08;17.30;99.90
3478;DHT22;37937;61.490;23.506;2023-04-25T13:42:35;17.40;99.90
3478;DHT22;37937;61.490;23.506;2023-04-25T13:45:01;17.50;97.60
3478;DHT22;37937;61.490;23.506;2023-04-25T13:47:27;17.50;93.80
3478;DHT22;37937;61.490;23.506;2023-04-25T13:49:53;17.50;92.20
3478;DHT22;37937;61.490;23.506;2023-04-25T13:52:18;17.50;88.30
3478;DHT22;37937;61.490;23.506;2023-04-25T13:54:44;17.60;79.70
3478;DHT22;37937;61.490;23.506;2023-04-25T13:57:10;17.60;71.10
3478;DHT22;37937;61.490;23.506;2023-04-25T13:59:36;17.60;72.00
3478;DHT22;37937;61.490;23.506;2023-04-25T14:02:02;17.70;65.40
3478;DHT22;37937;61.490;23.506;2023-04-25T14:04:27;17.60;57.80
3478;DHT22;37937;61.490;23.506;2023-04-25T14:06:53;17.60;56.10
3478;DHT22;37937;61.490;23.506;2023-04-25T14:09:19;17.70;51.80
3478;DHT22;37937;61.490;23.506;2023-04-25T14:11:46;17.70;52.00
3478;DHT22;37937;61.490;23.506;2023-04-25T14:14:11;17.70;49.30
3478;DHT22;37937;61.490;23.506;2023-04-25T14:16:38;17.60;50.30
3478;DHT22;37937;61.490;23.506;2023-04-25T14:19:04;17.60;49.30
3478;DHT22;37937;61.490;23.506;2023-04-25T14:21:29;17.60;50.40
3478;DHT22;37937;61.490;23.506;2023-04-25T14:23:57;17.50;49.80
3478;DHT22;37937;61.490;23.506;2023-04-25T14:26:23;17.50;51.90
3478;DHT22;37937;61.490;23.506;2023-04-25T14:28:49;17.40;47.90
3478;DHT22;37937;61.490;23.506;2023-04-25T14:31:15;17.40;48.60
3478;DHT22;37937;61.490;23.506;2023-04-25T14:33:40;17.40;46.60
3478;DHT22;37937;61.490;23.506;2023-04-25T14:36:07;17.40;49.20
3478;DHT22;37937;61.490;23.506;2023-04-25T14:38:33;17.30;48.00
3478;DHT22;37937;61.490;23.506;2023-04-25T14:40:59;17.20;48.20
3478;DHT22;37937;61.490;23.506;2023-04-25T14:43:24;17.30;49.30
3478;DHT22;37937;61.490;23.506;2023-04-25T14:45:50;17.30;47.40
3478;DHT22;37937;61.490;23.506;2023-04-25T14:48:16;17.20;47.60
3478;DHT22;37937;61.490;23.506;2023-04-25T14:50:43;17.20;47.80
3478;DHT22;37937;61.490;23.506;2023-04-25T14:53:08;17.10;47.90
3478;DHT22;37937;61.490;23.506;2023-04-25T14:55:34;16.90;48.30
3478;DHT22;37937;61.490;23.506;2023-04-25T14:58:00;16.90;48.40
3478;DHT22;37937;61.490;23.506;2023-04-25T15:00:26;16.80;49.30
3478;DHT22;37937;61.490;23.506;2023-04-25T15:02:51;16.70;49.20
3478;DHT22;37937;61.490;23.506;2023-04-25T15:05:17;16.60;48.80
3478;DHT22;37937;61.490;23.506;2023-04-25T15:07:43;16.60;46.30
3478;DHT22;37937;61.490;23.506;2023-04-25T15:10:09;16.50;47.00
3478;DHT22;37937;61.490;23.506;2023-04-25T15:12:47;16.50;46.40
3478;DHT22;37937;61.490;23.506;2023-04-25T15:15:13;16.50;47.30
3478;DHT22;37937;61.490;23.506;2023-04-25T15:17:40;16.50;44.00
3478;DHT22;37937;61.490;23.506;2023-04-25T15:20:06;16.60;44.10
3478;DHT22;37937;61.490;23.506;2023-04-25T15:22:32;16.70;45.20
3478;DHT22;37937;61.490;23.506;2023-04-25T15:24:58;16.70;47.00
3478;DHT22;37937;61.490;23.506;2023-04-25T15:27:24;16.70;44.20
3478;DHT22;37937;61.490;23.506;2023-04-25T15:29:49;16.60;44.50
3478;DHT22;37937;61.490;23.506;2023-04-25T15:32:15;16.50;43.90
3478;DHT22;37937;61.490;23.506;2023-04-25T15:34:41;16.50;43.70
3478;DHT22;37937;61.490;23.506;2023-04-25T15:37:06;16.40;44.40
3478;DHT22;37937;61.490;23.506;2023-04-25T15:39:32;16.40;46.50
3478;DHT22;37937;61.490;23.506;2023-04-25T15:41:57;16.30;48.20